Oxbow, New York
Current Conditions -  °F | °C
As of 4:58 PM on Monday 22 Dec 2014 (Local Time) from KGTB Reporting Station
Clear Clear  
Wind Chill: 29°   Ceiling: Unl
Heat Index: 34°   Visibility: 10mi
Dew Point: 24°   Wind: 6mph
Humidity: 66%   Direction: 130°SE
Pressure: 30.17"   Gusts: NA
Location:  44.29°N, 75.62°W
Report Text: KGTB 222158Z AUTO 13005KT 10SM CLR 01/M05 A3017 RMK AO2 SLP227 T00121046
Loading
Personal Weather Stations






























Interactive Weather Map New forecast layout! Learn more

10-Day Weather Forecast

Advertisements
Track Severe Weather on mobile